createdAt,value
2023-04-24T13:34:06.935Z,14.10
2023-04-24T13:35:31.910Z,16.10
2023-04-24T13:36:31.932Z,13.70
2023-04-24T13:37:31.850Z,11.90
2023-04-24T13:38:31.857Z,11.70
2023-04-24T13:39:31.823Z,12.80
2023-04-24T13:40:31.821Z,11.70
2023-04-24T13:41:31.818Z,11.00
2023-04-24T13:42:31.792Z,12.00
2023-04-24T13:43:31.777Z,11.90
2023-04-24T13:44:31.792Z,11.80
2023-04-24T13:45:31.784Z,11.70
2023-04-24T13:46:31.904Z,12.10
2023-04-24T13:47:31.784Z,12.90
2023-04-24T13:48:31.749Z,12.70
2023-04-24T13:49:31.798Z,14.80
2023-04-24T13:50:31.724Z,14.80
2023-04-24T13:51:31.699Z,14.30
2023-04-24T13:52:31.699Z,14.70
2023-04-24T13:53:31.692Z,14.60
2023-04-24T13:54:31.670Z,14.90
2023-04-24T13:55:31.658Z,16.10
2023-04-24T13:56:31.642Z,15.40
2023-04-24T13:57:31.649Z,16.40
2023-04-24T13:58:31.632Z,16.60
2023-04-24T13:59:31.611Z,17.40
2023-04-24T14:00:31.627Z,15.90
2023-04-24T14:01:31.614Z,17.60
2023-04-24T14:02:31.734Z,19.20
2023-04-24T14:03:31.742Z,19.40
2023-04-24T14:04:31.752Z,22.20
2023-04-24T14:05:31.544Z,21.60
2023-04-24T14:06:31.631Z,22.30
2023-04-24T14:07:31.523Z,21.10
2023-04-24T14:08:32.968Z,19.40
2023-04-24T14:09:31.996Z,18.10
2023-04-24T14:10:31.497Z,20.80
2023-04-24T14:11:31.545Z,19.90
2023-04-24T14:12:31.465Z,21.80
2023-04-24T14:13:31.458Z,21.80
2023-04-24T14:14:31.448Z,21.80
2023-04-24T14:15:31.462Z,24.00
2023-04-24T14:16:31.527Z,23.30
2023-04-24T14:17:31.466Z,26.00
2023-04-24T14:18:31.403Z,23.90
2023-04-24T14:19:31.488Z,22.80
2023-04-24T14:20:31.392Z,22.50
2023-04-24T14:21:31.417Z,22.40
2023-04-24T14:22:31.382Z,22.70
2023-04-24T14:23:31.349Z,24.10
2023-04-24T14:24:31.356Z,23.00
2023-04-24T14:25:31.382Z,24.70
2023-04-24T14:26:31.326Z,27.80
2023-04-24T14:27:31.290Z,27.70
2023-04-24T14:28:31.342Z,29.30
2023-04-24T14:29:32.075Z,32.20
2023-04-24T14:30:32.040Z,33.10
2023-04-24T14:31:31.272Z,30.50
2023-04-24T14:32:31.327Z,27.70
2023-04-24T14:33:31.266Z,26.90
2023-04-24T14:34:31.252Z,27.70
2023-04-24T14:35:31.500Z,25.90
2023-04-24T14:36:31.226Z,26.00
2023-04-24T14:37:31.189Z,24.50
2023-04-24T14:38:31.190Z,25.60
2023-04-24T14:39:31.175Z,24.00
2023-04-24T14:40:56.156Z,24.50
2023-04-24T14:41:32.166Z,23.70
2023-04-24T14:42:31.147Z,22.70
2023-04-24T14:43:31.123Z,22.90
2023-04-24T14:44:31.159Z,21.90
2023-04-24T14:45:31.139Z,22.10
2023-04-24T14:46:31.318Z,20.50
2023-04-24T14:47:31.204Z,19.40
2023-04-24T14:48:31.116Z,18.30
2023-04-24T14:49:31.073Z,19.90
2023-04-24T14:50:31.101Z,18.30
2023-04-24T14:51:31.073Z,18.20
2023-04-24T14:52:31.020Z,18.90
2023-04-24T14:53:31.033Z,18.80
2023-04-24T14:54:31.005Z,18.50
2023-04-24T14:55:30.990Z,19.00
2023-04-24T14:56:31.016Z,18.10
2023-04-24T14:57:31.012Z,18.30
2023-04-24T14:58:31.013Z,19.10
2023-04-24T14:59:30.977Z,19.80
2023-04-24T15:00:31.089Z,18.10
2023-04-24T15:01:31.488Z,17.40
2023-04-24T15:02:31.237Z,18.30
2023-04-24T15:03:31.198Z,18.20
2023-04-24T15:04:31.179Z,17.10
2023-04-24T15:05:31.407Z,17.70
2023-04-24T15:06:30.908Z,17.10
2023-04-24T15:07:30.881Z,16.80
2023-04-24T15:08:30.883Z,16.40
2023-04-24T15:09:30.966Z,16.00
2023-04-24T15:10:30.939Z,16.70
2023-04-24T15:11:30.824Z,16.10
2023-04-24T15:12:30.929Z,16.60
2023-04-24T15:13:30.835Z,16.30
2023-04-24T15:14:30.879Z,16.60
2023-04-24T15:15:32.373Z,15.80
2023-04-24T15:16:30.907Z,16.90
2023-04-24T15:17:30.870Z,17.80
2023-04-24T15:18:31.278Z,17.70
2023-04-24T15:19:30.895Z,17.30
2023-04-24T15:20:30.806Z,18.00
2023-04-24T15:21:30.779Z,17.70
2023-04-24T15:22:30.809Z,17.70
2023-04-24T15:23:30.739Z,18.40
2023-04-24T15:24:30.761Z,17.80
2023-04-24T15:25:31.609Z,17.50
2023-04-24T15:26:30.696Z,17.80
2023-04-24T15:27:30.628Z,18.20
2023-04-24T15:28:30.617Z,18.40
2023-04-24T15:29:30.620Z,19.20
2023-04-24T15:30:30.600Z,19.30
2023-04-24T15:31:30.642Z,20.00
2023-04-24T15:32:30.762Z,18.70
2023-04-24T15:33:30.563Z,18.40
2023-04-24T15:34:30.577Z,19.00
2023-04-24T15:35:30.541Z,18.70
2023-04-24T15:36:30.626Z,19.30
2023-04-24T15:37:30.533Z,18.70
2023-04-24T15:38:30.621Z,19.30
2023-04-24T15:39:30.506Z,17.70
2023-04-24T15:40:30.485Z,17.10
2023-04-24T15:41:30.473Z,18.00
2023-04-24T15:42:30.531Z,18.30
2023-04-24T15:43:30.478Z,18.10
2023-04-24T15:44:30.552Z,19.20
2023-04-24T15:45:30.955Z,18.00
2023-04-24T15:46:30.527Z,19.40
2023-04-24T15:47:30.454Z,19.90
2023-04-24T15:48:30.455Z,20.60
2023-04-24T15:49:30.387Z,20.90
2023-04-24T15:50:30.410Z,20.70
2023-04-24T15:51:30.396Z,21.80
2023-04-24T15:52:30.394Z,20.00
2023-04-24T15:53:30.363Z,21.30
2023-04-24T15:54:30.322Z,20.60
2023-04-24T15:55:30.326Z,20.00
2023-04-24T15:56:31.554Z,19.50
2023-04-24T15:57:30.902Z,19.00
2023-04-24T15:58:30.311Z,20.20
2023-04-24T15:59:30.326Z,18.90
2023-04-24T16:00:30.380Z,20.70
2023-04-24T16:01:30.272Z,20.60
2023-04-24T16:02:30.436Z,20.30
2023-04-24T16:03:30.492Z,21.70
2023-04-24T16:04:30.436Z,20.00
2023-04-24T16:05:30.203Z,21.20
2023-04-24T16:06:30.208Z,22.20
2023-04-24T16:07:30.182Z,19.80
2023-04-24T16:08:30.173Z,21.10
2023-04-24T16:09:30.185Z,20.50
2023-04-24T16:10:30.195Z,20.40
2023-04-24T16:11:30.139Z,20.40
2023-04-24T16:12:30.156Z,21.60
2023-04-24T16:13:30.128Z,20.00
2023-04-24T16:14:30.110Z,19.80
2023-04-24T16:15:30.105Z,20.00
2023-04-24T16:16:30.250Z,19.00
2023-04-24T16:17:30.117Z,18.40
2023-04-24T16:18:30.081Z,18.80
2023-04-24T16:19:30.072Z,19.00
2023-04-24T16:20:30.032Z,18.50
2023-04-24T16:21:30.025Z,19.20
2023-04-24T16:22:30.105Z,19.20
2023-04-24T16:23:30.018Z,17.00
2023-04-24T16:24:30.031Z,16.00
2023-04-24T16:25:30.014Z,14.70
2023-04-24T16:26:29.974Z,16.00
2023-04-24T16:27:29.964Z,15.20
2023-04-24T16:28:30.046Z,15.90
2023-04-24T16:29:29.932Z,15.50
2023-04-24T16:30:29.973Z,15.90
2023-04-24T16:31:29.996Z,16.00
2023-04-24T16:32:29.925Z,14.70
2023-04-24T16:33:29.913Z,15.20
2023-04-24T16:34:29.948Z,15.00
2023-04-24T16:35:29.865Z,15.80
2023-04-24T16:36:29.908Z,14.10
2023-04-24T16:37:29.871Z,15.90
2023-04-24T16:38:29.870Z,16.40
2023-04-24T16:39:29.835Z,15.40
2023-04-24T16:40:29.817Z,14.80
2023-04-24T16:41:29.802Z,15.20
2023-04-24T16:42:30.471Z,15.20
2023-04-24T16:43:29.772Z,14.30
2023-04-24T16:44:29.782Z,15.20
2023-04-24T16:45:29.785Z,15.00
2023-04-24T16:46:29.831Z,14.20
2023-04-24T16:47:29.844Z,15.10
2023-04-24T16:48:29.727Z,14.30
2023-04-24T16:49:29.726Z,15.00
2023-04-24T16:50:29.739Z,14.40
2023-04-24T16:51:29.722Z,15.30
2023-04-24T16:52:29.744Z,15.50
2023-04-24T16:53:29.669Z,14.90
2023-04-24T16:54:29.684Z,15.50
2023-04-24T16:55:29.666Z,14.40
2023-04-24T16:56:29.633Z,14.90
2023-04-24T16:57:29.618Z,14.50
2023-04-24T16:58:29.610Z,13.90
2023-04-24T16:59:29.587Z,14.50
2023-04-24T17:00:29.594Z,13.60
2023-04-24T17:01:29.763Z,14.80
2023-04-24T17:02:29.641Z,13.40
2023-04-24T17:03:29.730Z,14.60
2023-04-24T17:04:29.650Z,15.10
2023-04-24T17:05:29.538Z,15.30
2023-04-24T17:06:29.520Z,14.90
2023-04-24T17:07:29.534Z,15.60
2023-04-24T17:08:29.487Z,15.20
2023-04-24T17:09:29.495Z,15.40
2023-04-24T17:10:29.475Z,14.20
2023-04-24T17:11:31.221Z,14.40
2023-04-24T17:12:29.456Z,13.70
2023-04-24T17:13:29.573Z,14.50
2023-04-24T17:14:29.525Z,14.10
2023-04-24T17:15:29.423Z,13.80
2023-04-24T17:16:29.464Z,14.10
2023-04-24T17:17:29.401Z,13.80
2023-04-24T17:18:29.406Z,14.80
2023-04-24T17:19:29.414Z,14.70
2023-04-24T17:20:30.290Z,14.90
2023-04-24T17:21:29.350Z,14.20
2023-04-24T17:22:29.354Z,15.50
2023-04-24T17:23:29.363Z,14.70
2023-04-24T17:24:29.332Z,14.70
2023-04-24T17:25:29.333Z,15.00
2023-04-24T17:26:29.310Z,15.90
2023-04-24T17:27:29.310Z,15.80
2023-04-24T17:28:29.279Z,16.60
2023-04-24T17:29:29.275Z,16.60
2023-04-24T17:30:30.081Z,16.20
2023-04-24T17:31:29.944Z,16.50
2023-04-24T17:32:29.354Z,16.00
2023-04-24T17:33:29.261Z,16.50
2023-04-24T17:34:29.246Z,17.20
2023-04-24T17:35:29.200Z,16.70
2023-04-24T17:36:29.174Z,16.60
2023-04-24T17:37:29.177Z,17.30
2023-04-24T17:38:29.171Z,16.80
2023-04-24T17:39:29.162Z,17.20
2023-04-24T17:40:29.133Z,16.10
2023-04-24T17:41:29.132Z,16.40
2023-04-24T17:42:29.114Z,15.80
2023-04-24T17:43:29.128Z,15.50
2023-04-24T17:44:29.098Z,15.90
2023-04-24T17:45:29.099Z,15.90
2023-04-24T17:46:29.148Z,15.80
2023-04-24T17:47:29.099Z,15.80
2023-04-24T17:48:29.045Z,15.90
2023-04-24T17:49:29.282Z,16.10
2023-04-24T17:50:29.444Z,16.80
2023-04-24T17:51:29.320Z,16.60
2023-04-24T17:52:30.072Z,16.80
2023-04-24T17:53:29.029Z,16.80
2023-04-24T17:54:29.009Z,16.50
2023-04-24T17:55:29.019Z,17.00
2023-04-24T17:56:28.964Z,15.50
2023-04-24T17:57:28.954Z,16.10
2023-04-24T17:58:29.028Z,15.60
2023-04-24T17:59:28.940Z,15.10
2023-04-24T18:00:29.018Z,15.00
2023-04-24T18:01:28.965Z,15.70
2023-04-24T18:02:28.943Z,16.00
2023-04-24T18:03:28.972Z,16.30
2023-04-24T18:04:28.976Z,16.70
2023-04-24T18:05:28.866Z,15.90
2023-04-24T18:06:28.889Z,16.50
2023-04-24T18:07:28.894Z,17.00
2023-04-24T18:08:28.928Z,16.80
2023-04-24T18:09:28.840Z,15.40
2023-04-24T18:10:28.917Z,16.30
2023-04-24T18:11:28.809Z,17.20
2023-04-24T18:12:28.817Z,16.20
2023-04-24T18:13:28.768Z,16.20
2023-04-24T18:14:28.773Z,15.90
2023-04-24T18:15:28.754Z,15.80
2023-04-24T18:16:28.860Z,17.10
2023-04-24T18:17:28.783Z,16.20
2023-04-24T18:18:28.726Z,16.60
2023-04-24T18:19:28.710Z,15.10
2023-04-24T18:20:28.691Z,16.50
2023-04-24T18:21:28.719Z,16.00
2023-04-24T18:22:28.676Z,15.60
2023-04-24T18:23:28.669Z,16.30
2023-04-24T18:24:28.706Z,15.80
2023-04-24T18:25:28.639Z,15.30
2023-04-24T18:26:28.622Z,15.10
2023-04-24T18:27:28.617Z,16.00
2023-04-24T18:28:28.646Z,15.30
2023-04-24T18:29:28.592Z,16.10
2023-04-24T18:30:28.586Z,16.20
2023-04-24T18:31:28.758Z,15.90
2023-04-24T18:32:28.601Z,15.80
2023-04-24T18:33:28.556Z,16.70
2023-04-24T18:34:28.545Z,15.30
2023-04-24T18:35:28.592Z,16.30
2023-04-24T18:36:28.517Z,17.10
2023-04-24T18:37:28.531Z,17.00
2023-04-24T18:38:28.631Z,17.10
2023-04-24T18:39:28.523Z,16.90
2023-04-24T18:40:28.473Z,16.50
2023-04-24T18:41:28.477Z,16.30
2023-04-24T18:42:28.485Z,16.90
2023-04-24T18:43:28.430Z,15.60
2023-04-24T18:44:28.422Z,16.20
2023-04-24T18:45:28.423Z,16.40
2023-04-24T18:46:28.477Z,15.00
2023-04-24T18:47:28.441Z,17.20
2023-04-24T18:48:28.378Z,16.20
2023-04-24T18:49:28.379Z,16.30
2023-04-24T18:50:28.361Z,16.70
2023-04-24T18:51:28.361Z,17.00
2023-04-24T18:52:28.351Z,17.20
2023-04-24T18:53:28.340Z,17.50
2023-04-24T18:54:28.310Z,16.80
2023-04-24T18:55:28.321Z,16.50
2023-04-24T18:56:28.307Z,16.70
2023-04-24T18:57:28.327Z,16.10
2023-04-24T18:58:28.332Z,15.10
2023-04-24T18:59:28.272Z,15.30
2023-04-24T19:00:28.315Z,14.80
2023-04-24T19:01:28.303Z,15.60
2023-04-24T19:02:28.416Z,15.80
2023-04-24T19:03:28.306Z,15.10
2023-04-24T19:04:28.268Z,15.30
2023-04-24T19:05:28.239Z,16.00
2023-04-24T19:06:28.177Z,16.20
2023-04-24T19:07:28.289Z,14.20
2023-04-24T19:08:28.162Z,14.10
2023-04-24T19:09:28.178Z,13.70
2023-04-24T19:10:28.897Z,14.40
2023-04-24T19:11:28.344Z,14.20
2023-04-24T19:12:28.943Z,13.50
2023-04-24T19:13:29.491Z,12.90
2023-04-24T19:14:29.401Z,14.00
2023-04-24T19:15:29.352Z,13.70
2023-04-24T19:16:28.883Z,13.90
2023-04-24T19:17:28.426Z,13.60
2023-04-24T19:18:28.551Z,13.80
2023-04-24T19:19:28.413Z,14.10
2023-04-24T19:20:29.279Z,14.90
2023-04-24T19:21:28.634Z,14.50
2023-04-24T19:22:28.673Z,13.90
2023-04-24T19:23:28.399Z,14.30
2023-04-24T19:24:28.239Z,14.10
2023-04-24T19:25:28.867Z,13.40
2023-04-24T19:26:28.015Z,14.00
2023-04-24T19:27:27.999Z,13.70
2023-04-24T19:28:28.560Z,13.90
2023-04-24T19:29:28.532Z,13.00
2023-04-24T19:30:29.495Z,13.60
2023-04-24T19:31:28.282Z,14.20
2023-04-24T19:32:27.972Z,14.70
2023-04-24T19:33:27.911Z,15.30
2023-04-24T19:34:27.897Z,15.50
2023-04-24T19:35:27.872Z,16.30
2023-04-24T19:36:27.852Z,15.90
2023-04-24T19:37:27.847Z,16.30
2023-04-24T19:38:27.827Z,16.80
2023-04-24T19:39:27.944Z,17.10
2023-04-24T19:40:28.077Z,17.50
2023-04-24T19:41:27.797Z,17.30
2023-04-24T19:42:39.713Z,16.80
2023-04-24T19:43:28.786Z,17.40
2023-04-24T19:44:27.806Z,16.70
2023-04-24T19:45:27.854Z,17.50
2023-04-24T19:46:27.798Z,17.40
2023-04-24T19:47:27.742Z,17.00
2023-04-24T19:48:28.958Z,17.40
2023-04-24T19:49:27.945Z,17.60
2023-04-24T19:50:28.060Z,17.60
2023-04-24T19:51:27.953Z,18.00
2023-04-24T19:52:28.048Z,19.30
2023-04-24T19:53:28.074Z,18.70
2023-04-24T19:54:28.156Z,18.80
2023-04-24T19:55:28.115Z,18.30
2023-04-24T19:56:27.779Z,17.80
2023-04-24T19:57:27.808Z,18.00
2023-04-24T19:58:28.023Z,18.20
2023-04-24T19:59:27.981Z,18.40
2023-04-24T20:00:28.194Z,18.60
2023-04-24T20:01:28.070Z,17.90
2023-04-24T20:02:28.024Z,18.20
2023-04-24T20:03:33.421Z,18.40
2023-04-24T20:04:29.248Z,18.80
2023-04-24T20:05:28.280Z,18.40
2023-04-24T20:06:31.859Z,18.80
2023-04-24T20:07:27.674Z,19.20
2023-04-24T20:08:27.834Z,18.80
2023-04-24T20:09:27.558Z,19.20
2023-04-24T20:10:27.617Z,19.10
2023-04-24T20:11:27.629Z,19.00
2023-04-24T20:12:27.909Z,18.60
2023-04-24T20:13:27.529Z,18.80
2023-04-24T20:14:27.539Z,18.50
2023-04-24T20:15:28.056Z,18.70
2023-04-24T20:16:28.647Z,17.60
2023-04-24T20:17:28.085Z,18.50
2023-04-24T20:18:27.663Z,18.20
2023-04-24T20:19:28.195Z,18.10
2023-04-24T20:20:27.391Z,19.40
2023-04-24T20:21:27.412Z,18.80
2023-04-24T20:22:27.876Z,19.20
2023-04-24T20:23:27.799Z,19.00
2023-04-24T20:24:27.721Z,17.70
2023-04-24T20:25:27.611Z,18.90
2023-04-24T20:26:27.323Z,17.80
2023-04-24T20:27:27.966Z,18.50
2023-04-24T20:28:27.514Z,17.60
2023-04-24T20:29:27.629Z,18.30
2023-04-24T20:30:28.383Z,18.30
2023-04-24T20:31:28.121Z,17.40
2023-04-24T20:32:27.375Z,17.50
2023-04-24T20:33:28.038Z,17.40
2023-04-24T20:34:27.992Z,18.30
2023-04-24T20:35:27.943Z,19.10
2023-04-24T20:36:27.474Z,17.60
2023-04-24T20:37:27.508Z,18.00
2023-04-24T20:38:27.582Z,18.90
2023-04-24T20:39:27.764Z,17.60
2023-04-24T20:40:27.439Z,18.30
2023-04-24T20:41:27.387Z,18.40
2023-04-24T20:42:27.496Z,17.30
2023-04-24T20:43:29.203Z,17.30
2023-04-24T20:44:28.050Z,17.20
2023-04-24T20:45:27.342Z,16.20
2023-04-24T20:46:27.091Z,15.40
2023-04-24T20:47:27.089Z,14.80
2023-04-24T20:48:27.071Z,13.00
2023-04-24T20:49:27.047Z,13.60
2023-04-24T20:50:27.030Z,14.40
2023-04-24T20:51:27.009Z,15.40
2023-04-24T20:52:27.003Z,15.90
2023-04-24T20:53:27.008Z,19.00
2023-04-24T20:54:27.008Z,17.80
2023-04-24T20:55:27.044Z,18.00
2023-04-24T20:56:26.959Z,18.00
2023-04-24T20:57:26.957Z,14.80
2023-04-24T20:58:26.932Z,15.20
2023-04-24T20:59:26.925Z,19.80
2023-04-24T21:00:27.357Z,18.80
2023-04-24T21:01:27.085Z,20.40
2023-04-24T21:02:27.015Z,19.50
2023-04-24T21:03:26.954Z,19.00
2023-04-24T21:04:26.903Z,16.60
2023-04-24T21:05:26.880Z,17.70
2023-04-24T21:06:26.854Z,19.00
2023-04-24T21:07:26.835Z,18.70
2023-04-24T21:08:26.822Z,18.00
2023-04-24T21:09:26.875Z,20.00
2023-04-24T21:10:27.560Z,20.70
2023-04-24T21:11:27.119Z,22.00
2023-04-24T21:12:27.077Z,20.40
2023-04-24T21:13:27.254Z,17.10
2023-04-24T21:14:28.252Z,17.30
2023-04-24T21:15:26.740Z,17.30
2023-04-24T21:16:26.790Z,17.90
2023-04-24T21:17:26.760Z,18.40
2023-04-24T21:18:26.707Z,17.60
2023-04-24T21:19:26.791Z,18.30
2023-04-24T21:20:26.700Z,20.60
2023-04-24T21:21:27.163Z,18.70
2023-04-24T21:22:26.671Z,18.80
2023-04-24T21:23:26.716Z,19.10
2023-04-24T21:24:26.678Z,18.70
2023-04-24T21:25:26.631Z,19.90
2023-04-24T21:26:26.640Z,21.20
2023-04-24T21:27:26.620Z,21.10
2023-04-24T21:28:26.606Z,20.60
2023-04-24T21:29:26.596Z,19.60
2023-04-24T21:30:26.576Z,19.70
2023-04-24T21:31:26.633Z,21.00
2023-04-24T21:32:26.594Z,20.90
2023-04-24T21:33:27.290Z,22.80
2023-04-24T21:34:26.534Z,23.00
2023-04-24T21:35:26.532Z,22.80
2023-04-24T21:36:26.508Z,22.80
2023-04-24T21:37:26.500Z,23.50
2023-04-24T21:38:26.594Z,22.10
2023-04-24T21:39:26.997Z,21.50
2023-04-24T21:40:27.041Z,21.20
2023-04-24T21:41:27.196Z,20.80
2023-04-24T21:42:26.440Z,20.60
2023-04-24T21:43:37.209Z,19.40
2023-04-24T21:44:28.013Z,20.40
2023-04-24T21:45:26.998Z,19.20
2023-04-24T21:46:27.757Z,18.40
2023-04-24T21:47:26.803Z,18.40
2023-04-24T21:48:26.964Z,18.00
2023-04-24T21:49:26.758Z,17.10
2023-04-24T21:50:26.401Z,17.00
2023-04-24T21:51:27.739Z,16.40
2023-04-24T21:52:26.404Z,15.70
2023-04-24T21:53:26.354Z,15.40
2023-04-24T21:54:26.357Z,15.30
2023-04-24T21:55:26.313Z,15.50
2023-04-24T21:56:26.350Z,15.60
2023-04-24T21:57:26.336Z,14.80
2023-04-24T21:58:26.338Z,16.10
2023-04-24T21:59:26.295Z,16.20
2023-04-24T22:00:26.274Z,16.40
2023-04-24T22:01:26.277Z,15.70
2023-04-24T22:02:26.473Z,15.90
2023-04-24T22:03:26.401Z,16.10
2023-04-24T22:04:26.887Z,16.20
2023-04-24T22:05:26.198Z,15.00
2023-04-24T22:06:26.200Z,15.40
2023-04-24T22:07:26.220Z,14.40
2023-04-24T22:08:26.163Z,15.50
2023-04-24T22:09:26.242Z,15.10
2023-04-24T22:10:26.171Z,15.20
2023-04-24T22:11:27.156Z,15.40
2023-04-24T22:12:26.115Z,15.40
2023-04-24T22:13:26.106Z,15.40
2023-04-24T22:14:26.096Z,15.30
2023-04-24T22:15:26.131Z,15.00
2023-04-24T22:16:27.278Z,15.10
2023-04-24T22:17:26.067Z,15.20
2023-04-24T22:18:33.433Z,15.20
2023-04-24T22:19:27.114Z,14.60
2023-04-24T22:20:26.081Z,15.00
2023-04-24T22:21:26.010Z,14.80
2023-04-24T22:22:26.019Z,15.00
2023-04-24T22:23:25.993Z,14.80
2023-04-24T22:24:26.108Z,14.80
2023-04-24T22:25:25.980Z,15.30
2023-04-24T22:26:25.963Z,14.80
2023-04-24T22:27:25.952Z,15.80
2023-04-24T22:28:25.939Z,14.80
2023-04-24T22:29:25.937Z,15.40
2023-04-24T22:30:25.938Z,14.90
2023-04-24T22:31:25.926Z,15.20
2023-04-24T22:32:25.922Z,15.00
2023-04-24T22:33:25.879Z,14.50
2023-04-24T22:34:25.889Z,15.00
2023-04-24T22:35:25.866Z,14.80
2023-04-24T22:36:25.852Z,15.50
2023-04-24T22:37:25.841Z,15.50
2023-04-24T22:38:25.827Z,16.40
2023-04-24T22:39:25.810Z,15.10
2023-04-24T22:40:25.826Z,16.10
2023-04-24T22:41:25.794Z,16.00
2023-04-24T22:42:25.798Z,15.10
2023-04-24T22:43:25.768Z,15.60
2023-04-24T22:44:25.759Z,14.80
2023-04-24T22:45:25.733Z,15.30
2023-04-24T22:46:25.786Z,15.10
2023-04-24T22:47:25.741Z,14.60
2023-04-24T22:48:25.712Z,15.80
2023-04-24T22:49:25.733Z,16.10
2023-04-24T22:50:25.732Z,16.50
2023-04-24T22:51:25.738Z,16.20
2023-04-24T22:52:25.754Z,16.60
2023-04-24T22:53:25.661Z,16.20
2023-04-24T22:54:25.650Z,16.10
2023-04-24T22:55:25.651Z,15.90
2023-04-24T22:56:25.633Z,16.80
2023-04-24T22:57:25.603Z,16.00
2023-04-24T22:58:25.632Z,16.00
2023-04-24T22:59:25.602Z,15.90
2023-04-24T23:00:25.591Z,17.10
2023-04-24T23:01:25.601Z,15.80
2023-04-24T23:02:25.740Z,14.30
2023-04-24T23:03:25.786Z,15.80
2023-04-24T23:04:25.599Z,16.90
2023-04-24T23:05:25.549Z,16.40
2023-04-24T23:06:25.530Z,14.90
2023-04-24T23:07:25.520Z,14.80
2023-04-24T23:08:25.503Z,15.10
2023-04-24T23:09:25.479Z,14.80
2023-04-24T23:10:25.501Z,14.70
2023-04-24T23:11:25.458Z,15.20
2023-04-24T23:12:25.446Z,15.40
2023-04-24T23:13:25.446Z,14.60
2023-04-24T23:14:25.424Z,14.80
2023-04-24T23:15:25.427Z,15.30
2023-04-24T23:16:25.444Z,15.20
2023-04-24T23:17:25.415Z,15.10
2023-04-24T23:18:25.384Z,15.00
2023-04-24T23:19:25.364Z,15.10
2023-04-24T23:20:25.368Z,15.00
2023-04-24T23:21:25.345Z,15.10
2023-04-24T23:22:25.344Z,13.90
2023-04-24T23:23:25.338Z,14.20
2023-04-24T23:24:25.320Z,14.70
2023-04-24T23:25:25.314Z,14.70
2023-04-24T23:26:25.297Z,14.90
2023-04-24T23:27:25.283Z,14.70
2023-04-24T23:28:25.269Z,14.60
2023-04-24T23:29:25.254Z,15.00
2023-04-24T23:30:25.261Z,15.40
2023-04-24T23:31:25.265Z,14.70
2023-04-24T23:32:25.327Z,15.00
2023-04-24T23:33:25.223Z,15.20
2023-04-24T23:34:25.206Z,15.00
2023-04-24T23:35:25.195Z,15.10
2023-04-24T23:36:25.181Z,14.70
2023-04-24T23:37:25.165Z,14.50
2023-04-24T23:38:25.168Z,14.70
2023-04-24T23:39:25.155Z,15.30
2023-04-24T23:40:25.163Z,15.20
2023-04-24T23:41:25.127Z,15.10
2023-04-24T23:42:25.111Z,15.40
2023-04-24T23:43:25.142Z,15.00
2023-04-24T23:44:25.099Z,14.40
2023-04-24T23:45:25.103Z,15.00
2023-04-24T23:46:25.139Z,14.10
2023-04-24T23:47:25.138Z,14.60
2023-04-24T23:48:25.055Z,14.50
2023-04-24T23:49:25.044Z,14.90
2023-04-24T23:50:25.042Z,14.60
2023-04-24T23:51:25.031Z,14.20
2023-04-24T23:52:25.033Z,15.00
2023-04-24T23:53:24.998Z,14.40
2023-04-24T23:54:25.028Z,14.70
2023-04-24T23:55:24.972Z,15.00
2023-04-24T23:56:24.982Z,16.20
2023-04-24T23:57:25.142Z,17.20
2023-04-24T23:58:24.949Z,17.10
2023-04-24T23:59:24.937Z,20.20
